Time;durP1;ratioP1;P1;durP2;ratioP2;P2;SDS_P1;SDS_P2;PMS_P1;PMS_P2;Temp;Humidity;BMP_temperature;BMP_pressure;BME280_temperature;BME280_humidity;BME280_pressure;Samples;Min_cycle;Max_cycle;Signal;HPM_P1;HPM_P2
2021/06/29 00:02:24;;;;;;;8.90;4.20;;;10.20;99.90;;;;;;4952401;29;20626;-80
2021/06/29 00:04:51;;;;;;;5.87;3.77;;;10.30;99.90;;;;;;4956153;29;20295;-80
2021/06/29 00:07:19;;;;;;;8.57;4.60;;;10.10;99.90;;;;;;4956146;29;20223;-81
2021/06/29 00:09:47;;;;;;;6.57;4.20;;;10.10;99.90;;;;;;4955767;29;20293;-80
2021/06/29 00:12:14;;;;;;;5.13;4.20;;;10.10;99.90;;;;;;4956529;29;20250;-80
2021/06/29 00:14:44;;;;;;;6.33;4.20;;;10.10;99.90;;;;;;4950533;29;20648;-80
2021/06/29 00:17:11;;;;;;;7.80;4.77;;;10.10;99.90;;;;;;4943996;29;20606;-80
2021/06/29 00:19:38;;;;;;;7.07;4.23;;;10.10;99.90;;;;;;4955735;29;20301;-80
2021/06/29 00:22:06;;;;;;;8.83;4.50;;;10.00;99.90;;;;;;4948446;29;20755;-80
2021/06/29 00:24:33;;;;;;;6.63;4.30;;;9.90;99.90;;;;;;4942287;29;20204;-79
2021/06/29 00:27:02;;;;;;;6.20;3.60;;;9.80;99.90;;;;;;4940287;29;20689;-80
2021/06/29 00:29:28;;;;;;;10.20;4.07;;;9.70;99.90;;;;;;4937206;29;20633;-80
2021/06/29 00:31:55;;;;;;;7.57;4.00;;;9.70;99.90;;;;;;4941013;29;20642;-80
2021/06/29 00:34:22;;;;;;;8.93;4.40;;;9.60;99.90;;;;;;4941482;29;20639;-80
2021/06/29 00:36:50;;;;;;;5.63;3.97;;;9.60;99.90;;;;;;4950681;29;20294;-80
2021/06/29 00:39:17;;;;;;;4.53;4.03;;;9.50;99.90;;;;;;4945864;29;20203;-80
2021/06/29 00:41:44;;;;;;;14.10;4.47;;;9.60;99.90;;;;;;4955659;29;20320;-80
2021/06/29 00:44:21;;;;;;;24.10;5.00;;;9.70;99.90;;;;;;4938423;29;20732;-80
2021/06/29 00:46:48;;;;;;;12.93;4.83;;;9.70;99.90;;;;;;4943081;29;20279;-80
2021/06/29 00:49:15;;;;;;;6.10;4.60;;;9.70;99.90;;;;;;4943003;29;20210;-80
2021/06/29 00:51:42;;;;;;;12.57;4.63;;;9.50;99.90;;;;;;4955002;29;20296;-80
2021/06/29 00:54:10;;;;;;;9.97;4.13;;;9.40;99.90;;;;;;4949682;29;20621;-80
2021/06/29 00:56:37;;;;;;;6.37;4.23;;;9.50;99.90;;;;;;4937557;29;20291;-80
2021/06/29 00:59:05;;;;;;;53.07;5.10;;;9.50;99.90;;;;;;4956021;29;20300;-80
2021/06/29 01:01:33;;;;;;;18.33;4.17;;;9.50;99.90;;;;;;4948127;29;20253;-80
2021/06/29 01:04:00;;;;;;;13.03;4.00;;;9.50;99.90;;;;;;4943175;29;20232;-81
2021/06/29 01:06:28;;;;;;;6.20;3.80;;;9.50;99.90;;;;;;4945424;29;20283;-80
2021/06/29 01:08:55;;;;;;;8.93;3.90;;;9.40;99.90;;;;;;4945338;29;20203;-80
2021/06/29 01:11:22;;;;;;;7.60;3.50;;;9.40;99.90;;;;;;4946332;29;20205;-80
2021/06/29 01:13:50;;;;;;;5.43;3.30;;;9.30;99.90;;;;;;4948830;29;20290;-79
2021/06/29 01:16:17;;;;;;;7.53;3.53;;;9.40;99.90;;;;;;4938322;29;20200;-80
2021/06/29 01:18:46;;;;;;;13.03;3.67;;;9.40;99.90;;;;;;4942136;29;20304;-80
2021/06/29 01:21:17;;;;;;;10.13;3.47;;;9.40;99.90;;;;;;4936687;29;20228;-80
2021/06/29 01:23:48;;;;;;;5.70;3.43;;;9.40;99.90;;;;;;4953210;29;20687;-80
2021/06/29 01:26:20;;;;;;;7.00;3.50;;;9.40;99.90;;;;;;4953790;29;20616;-80
2021/06/29 01:28:55;;;;;;;25.47;3.97;;;9.30;99.90;;;;;;4955507;29;20207;-80
2021/06/29 01:31:21;;;;;;;7.70;3.63;;;9.40;99.90;;;;;;4954886;29;20685;-80
2021/06/29 01:33:49;;;;;;;23.47;3.80;;;9.40;99.90;;;;;;4955338;29;20291;-80
2021/06/29 01:36:18;;;;;;;21.90;3.90;;;9.30;99.90;;;;;;4954562;29;20254;-80
2021/06/29 01:38:46;;;;;;;60.03;5.07;;;9.30;99.90;;;;;;4936586;29;20214;-80
2021/06/29 01:41:14;;;;;;;29.53;4.20;;;9.20;99.90;;;;;;4950635;29;20257;-80
2021/06/29 01:43:46;;;;;;;38.53;4.67;;;9.30;99.90;;;;;;4944969;29;20638;-80
2021/06/29 01:46:14;;;;;;;45.57;4.73;;;9.20;99.90;;;;;;4953928;29;20203;-80
2021/06/29 01:48:45;;;;;;;54.57;4.83;;;9.20;99.90;;;;;;4949723;29;20209;-80
2021/06/29 01:51:12;;;;;;;23.07;4.57;;;9.20;99.90;;;;;;4953892;29;20574;-80
2021/06/29 01:53:42;;;;;;;28.13;3.97;;;9.20;99.90;;;;;;4943379;29;20213;-80
2021/06/29 01:56:14;;;;;;;37.13;4.90;;;9.20;99.90;;;;;;4950827;29;20685;-80
2021/06/29 01:58:42;;;;;;;24.80;3.60;;;9.10;99.90;;;;;;4954551;29;20203;-80
2021/06/29 02:01:09;;;;;;;34.67;4.57;;;9.10;99.90;;;;;;4954162;29;20254;-79
2021/06/29 02:03:36;;;;;;;18.57;3.70;;;9.00;99.90;;;;;;4954639;29;20199;-81
2021/06/29 02:06:03;;;;;;;7.73;3.33;;;9.00;99.90;;;;;;4951700;29;20207;-80
2021/06/29 02:08:30;;;;;;;5.30;3.10;;;8.90;99.90;;;;;;4944326;29;20693;-80
2021/06/29 02:10:58;;;;;;;9.67;3.17;;;8.90;99.90;;;;;;4954052;29;20232;-80
2021/06/29 02:13:25;;;;;;;19.87;3.77;;;8.90;99.90;;;;;;4942832;29;20240;-80
2021/06/29 02:15:55;;;;;;;17.63;3.83;;;8.90;99.90;;;;;;4948094;29;20240;-80
2021/06/29 02:18:22;;;;;;;17.77;3.70;;;8.90;99.90;;;;;;4951502;28;20200;-80
2021/06/29 02:20:49;;;;;;;9.07;3.30;;;8.90;99.90;;;;;;4953285;29;20793;-80
2021/06/29 02:23:16;;;;;;;4.97;2.83;;;8.90;99.90;;;;;;4953970;29;20660;-80
2021/06/29 02:25:43;;;;;;;13.00;3.73;;;8.80;99.90;;;;;;4951588;29;20245;-80
2021/06/29 02:28:11;;;;;;;6.47;3.40;;;8.90;99.90;;;;;;4953054;29;20650;-80
2021/06/29 02:30:40;;;;;;;6.27;3.50;;;8.90;99.90;;;;;;4953494;29;20601;-80
2021/06/29 02:33:07;;;;;;;3.93;3.10;;;8.90;99.90;;;;;;4941675;29;20699;-79
2021/06/29 02:35:34;;;;;;;3.90;3.50;;;8.80;99.90;;;;;;4949310;29;20308;-80
2021/06/29 02:38:01;;;;;;;3.60;3.30;;;8.70;99.90;;;;;;4954033;29;20290;-79
2021/06/29 02:40:29;;;;;;;6.97;3.37;;;8.60;99.90;;;;;;4943707;29;20294;-79
2021/06/29 02:42:56;;;;;;;8.13;3.20;;;8.60;99.90;;;;;;4942292;29;20312;-79
2021/06/29 02:45:25;;;;;;;6.43;3.27;;;8.60;99.90;;;;;;4936072;29;20239;-79
2021/06/29 02:47:53;;;;;;;4.67;3.43;;;8.50;99.90;;;;;;4946323;29;20210;-78
2021/06/29 02:50:20;;;;;;;23.23;3.70;;;8.50;99.90;;;;;;4952201;29;20292;-80
2021/06/29 02:52:48;;;;;;;12.63;3.57;;;8.50;99.90;;;;;;4936581;29;20221;-80
2021/06/29 02:55:16;;;;;;;15.23;3.50;;;8.50;99.90;;;;;;4934622;29;20690;-80
2021/06/29 02:57:44;;;;;;;7.70;3.17;;;8.50;99.90;;;;;;4934662;29;20286;-78
2021/06/29 03:00:14;;;;;;;19.83;4.00;;;8.50;99.90;;;;;;4952652;29;20294;-78
2021/06/29 03:02:42;;;;;;;37.53;4.30;;;8.60;99.90;;;;;;4952185;29;20312;-79
2021/06/29 03:05:11;;;;;;;17.13;3.40;;;8.60;99.90;;;;;;4953802;29;20236;-80
2021/06/29 03:07:38;;;;;;;10.37;3.37;;;8.50;99.90;;;;;;4942383;29;20236;-80
2021/06/29 03:10:06;;;;;;;11.60;3.30;;;8.50;99.90;;;;;;4936882;29;20725;-79
2021/06/29 03:12:34;;;;;;;21.83;3.40;;;8.40;99.90;;;;;;4951255;29;20245;-80
2021/06/29 03:15:02;;;;;;;10.90;3.40;;;8.40;99.90;;;;;;4934603;29;20301;-79
2021/06/29 03:17:29;;;;;;;8.63;3.50;;;8.30;99.90;;;;;;4948385;29;20678;-80
2021/06/29 03:19:58;;;;;;;20.20;3.20;;;8.20;99.90;;;;;;4945327;29;20246;-80
2021/06/29 03:22:25;;;;;;;11.43;3.27;;;8.20;99.90;;;;;;4952926;29;20319;-80
2021/06/29 03:24:52;;;;;;;4.77;2.60;;;8.10;99.90;;;;;;4945974;29;20306;-80
2021/06/29 03:27:19;;;;;;;16.00;3.63;;;8.00;99.90;;;;;;4953599;29;20232;-78
2021/06/29 03:29:46;;;;;;;4.50;2.60;;;8.00;99.90;;;;;;4951614;28;20603;-80
2021/06/29 03:32:13;;;;;;;4.20;2.60;;;8.00;99.90;;;;;;4948449;29;20280;-80
2021/06/29 03:34:40;;;;;;;4.90;3.33;;;7.90;99.90;;;;;;4956544;29;20751;-81
2021/06/29 03:37:08;;;;;;;3.83;2.47;;;7.90;99.90;;;;;;4938903;29;20204;-80
2021/06/29 03:39:35;;;;;;;3.27;2.50;;;7.90;99.90;;;;;;4948029;29;20261;-80
2021/06/29 03:42:03;;;;;;;4.27;2.50;;;8.00;99.90;;;;;;4956874;29;20316;-80
2021/06/29 03:44:29;;;;;;;3.33;2.53;;;8.00;99.90;;;;;;4944793;29;20295;-80
2021/06/29 03:46:56;;;;;;;3.40;2.73;;;7.80;99.90;;;;;;4937659;29;20294;-80
2021/06/29 03:49:23;;;;;;;3.63;3.30;;;8.00;99.90;;;;;;4940581;29;20218;-80
2021/06/29 03:51:53;;;;;;;4.73;3.17;;;8.30;99.90;;;;;;4939828;29;20231;-80
2021/06/29 03:54:21;;;;;;;6.23;3.07;;;8.40;99.90;;;;;;4951810;29;20254;-80
2021/06/29 03:56:48;;;;;;;4.17;3.50;;;8.60;99.90;;;;;;4954162;29;20289;-80
2021/06/29 03:59:15;;;;;;;5.97;3.67;;;8.60;99.90;;;;;;4949782;29;20286;-81
2021/06/29 04:01:42;;;;;;;10.00;4.77;;;8.70;99.90;;;;;;4946393;29;20250;-80
2021/06/29 04:04:09;;;;;;;56.00;6.63;;;8.90;99.90;;;;;;4937230;29;20291;-80
2021/06/29 04:06:38;;;;;;;56.63;7.17;;;9.10;99.90;;;;;;4949697;29;20202;-80
2021/06/29 04:09:07;;;;;;;66.80;7.23;;;9.40;99.90;;;;;;4956457;29;20642;-81
2021/06/29 04:11:37;;;;;;;67.23;8.57;;;9.40;99.90;;;;;;4956749;29;20254;-80
2021/06/29 04:14:05;;;;;;;47.57;7.27;;;9.50;99.90;;;;;;4953125;29;20293;-80
2021/06/29 04:16:32;;;;;;;44.93;6.83;;;9.50;99.90;;;;;;4941661;29;20287;-79
2021/06/29 04:18:59;;;;;;;23.10;7.00;;;9.60;99.90;;;;;;4944477;29;20237;-80
2021/06/29 04:21:26;;;;;;;19.20;6.37;;;9.60;99.90;;;;;;4955211;29;20277;-80
2021/06/29 04:23:53;;;;;;;65.07;7.93;;;9.70;99.90;;;;;;4956468;29;20299;-79
2021/06/29 04:26:20;;;;;;;79.83;8.97;;;9.80;99.90;;;;;;4955581;29;20289;-80
2021/06/29 04:28:49;;;;;;;56.13;7.90;;;9.80;99.90;;;;;;4946625;29;20267;-80
2021/06/29 04:31:18;;;;;;;85.63;8.13;;;9.90;99.90;;;;;;4948971;29;20235;-80
2021/06/29 04:33:45;;;;;;;49.70;6.83;;;9.90;99.90;;;;;;4937045;29;20292;-80
2021/06/29 04:36:12;;;;;;;156.93;10.23;;;10.00;99.90;;;;;;4956412;29;20203;-79
2021/06/29 04:38:39;;;;;;;44.87;7.20;;;10.00;99.90;;;;;;4955839;29;20211;-80
2021/06/29 04:41:06;;;;;;;48.47;7.10;;;10.10;99.90;;;;;;4956222;28;20302;-80
2021/06/29 04:43:36;;;;;;;98.97;9.00;;;10.10;99.90;;;;;;4952140;29;20725;-80
2021/06/29 04:46:04;;;;;;;84.93;9.17;;;10.10;99.90;;;;;;4956041;29;20211;-80
2021/06/29 04:48:32;;;;;;;68.30;7.30;;;10.20;99.90;;;;;;4956181;29;20244;-80
2021/06/29 04:50:59;;;;;;;49.47;7.30;;;10.20;99.90;;;;;;4942941;29;20217;-79
2021/06/29 04:53:25;;;;;;;25.43;7.03;;;10.30;99.90;;;;;;4947289;29;20273;-80
2021/06/29 04:55:52;;;;;;;107.67;8.63;;;10.40;99.90;;;;;;4952099;29;20614;-80
2021/06/29 04:58:19;;;;;;;37.43;7.00;;;10.40;99.90;;;;;;4939891;29;20254;-79
2021/06/29 05:00:49;;;;;;;35.30;7.33;;;10.50;99.90;;;;;;4954925;29;20328;-80
2021/06/29 05:03:18;;;;;;;23.57;7.00;;;10.50;99.90;;;;;;4941344;29;20229;-79
2021/06/29 05:05:45;;;;;;;41.40;6.80;;;10.50;99.90;;;;;;4938181;29;20279;-79
2021/06/29 05:08:12;;;;;;;84.20;8.07;;;10.50;99.90;;;;;;4954330;28;20290;-80
2021/06/29 05:10:39;;;;;;;64.37;7.50;;;10.50;99.90;;;;;;4942262;29;20290;-80
2021/06/29 05:13:06;;;;;;;39.00;6.27;;;10.40;99.90;;;;;;4941569;29;20674;-79
2021/06/29 05:15:33;;;;;;;39.97;6.57;;;10.40;99.90;;;;;;4946736;29;20235;-79
2021/06/29 05:18:00;;;;;;;41.23;6.60;;;10.50;99.90;;;;;;4955375;29;20294;-79
2021/06/29 05:20:29;;;;;;;50.77;5.90;;;10.50;99.90;;;;;;4954199;29;20277;-79
2021/06/29 05:22:55;;;;;;;33.13;5.33;;;10.40;99.90;;;;;;4945970;29;20729;-79
2021/06/29 05:25:22;;;;;;;46.67;6.50;;;10.40;99.90;;;;;;4947262;29;20272;-79
2021/06/29 05:27:50;;;;;;;62.90;6.30;;;10.40;99.90;;;;;;4946536;29;20732;-80
2021/06/29 05:30:18;;;;;;;33.40;6.63;;;10.50;99.90;;;;;;4952392;29;20207;-78
2021/06/29 05:32:45;;;;;;;38.60;5.77;;;10.70;99.90;;;;;;4943719;29;20649;-79
2021/06/29 05:35:12;;;;;;;39.93;6.00;;;10.50;99.90;;;;;;4951943;28;20701;-79
2021/06/29 05:37:41;;;;;;;29.43;5.70;;;10.50;99.90;;;;;;4944924;28;20290;-80
2021/06/29 05:40:09;;;;;;;23.10;5.00;;;10.60;99.90;;;;;;4939428;29;20234;-79
2021/06/29 05:42:36;;;;;;;39.13;5.57;;;10.70;99.90;;;;;;4955663;29;20338;-77
2021/06/29 05:45:04;;;;;;;89.47;7.07;;;10.80;99.90;;;;;;4953332;29;20286;-78
2021/06/29 05:47:33;;;;;;;17.83;5.13;;;10.80;99.90;;;;;;4940816;29;20268;-78
2021/06/29 05:50:00;;;;;;;10.33;4.80;;;11.00;99.90;;;;;;4947298;29;20677;-78
2021/06/29 05:52:27;;;;;;;20.90;4.73;;;11.00;99.90;;;;;;4953237;28;20233;-78
2021/06/29 05:54:56;;;;;;;26.50;4.80;;;11.00;99.90;;;;;;4951180;29;20668;-79
2021/06/29 05:57:23;;;;;;;12.37;4.70;;;10.90;99.90;;;;;;4953810;29;20214;-79
2021/06/29 05:59:50;;;;;;;13.17;4.30;;;10.80;99.90;;;;;;4943050;29;20263;-78
2021/06/29 06:02:17;;;;;;;24.30;4.30;;;10.90;99.90;;;;;;4947633;29;20223;-78
2021/06/29 06:04:44;;;;;;;13.47;4.50;;;11.00;99.90;;;;;;4943958;28;20580;-79
2021/06/29 06:07:12;;;;;;;14.77;4.90;;;11.00;99.90;;;;;;4951458;28;20230;-79
2021/06/29 06:09:38;;;;;;;9.37;4.60;;;11.20;99.90;;;;;;4949798;28;20286;-79
2021/06/29 06:12:08;;;;;;;20.63;4.97;;;11.40;99.90;;;;;;4945109;29;20209;-79
2021/06/29 06:14:35;;;;;;;29.13;4.80;;;11.40;99.90;;;;;;4940955;29;20291;-78
2021/06/29 06:17:02;;;;;;;11.43;4.83;;;11.40;99.90;;;;;;4947573;29;20253;-78
2021/06/29 06:19:29;;;;;;;27.57;5.23;;;11.60;99.90;;;;;;4943833;29;20286;-79
2021/06/29 06:21:56;;;;;;;15.90;4.50;;;11.60;99.90;;;;;;4935570;29;20713;-79
2021/06/29 06:24:23;;;;;;;36.67;6.00;;;11.60;99.90;;;;;;4946057;29;20278;-79
2021/06/29 06:26:50;;;;;;;71.67;6.80;;;11.60;99.90;;;;;;4950990;29;20206;-78
2021/06/29 06:29:18;;;;;;;19.67;5.77;;;11.60;99.90;;;;;;4941428;29;20631;-79
2021/06/29 06:31:45;;;;;;;9.60;5.30;;;11.60;99.90;;;;;;4949363;29;20356;-78
2021/06/29 06:34:12;;;;;;;5.77;5.20;;;11.80;99.90;;;;;;4943695;29;20286;-78
2021/06/29 06:36:40;;;;;;;10.83;6.03;;;12.10;99.90;;;;;;4944525;29;20286;-78
2021/06/29 06:39:07;;;;;;;14.73;5.53;;;12.20;99.90;;;;;;4947472;29;20211;-78
2021/06/29 06:41:34;;;;;;;36.60;5.73;;;11.90;99.90;;;;;;4943183;29;20597;-78
2021/06/29 06:44:01;;;;;;;33.73;5.00;;;11.70;99.90;;;;;;4947011;29;20214;-78
2021/06/29 06:46:29;;;;;;;20.20;5.90;;;11.70;99.90;;;;;;4951555;29;20286;-79
2021/06/29 06:48:56;;;;;;;67.03;7.60;;;11.70;99.90;;;;;;4950134;29;20282;-78
2021/06/29 06:51:23;;;;;;;38.90;6.47;;;11.90;99.90;;;;;;4947777;29;20220;-78
2021/06/29 06:53:50;;;;;;;36.67;5.80;;;12.30;99.90;;;;;;4944679;29;20212;-79
2021/06/29 06:56:18;;;;;;;59.23;6.50;;;12.50;99.90;;;;;;4946920;29;20203;-79
2021/06/29 06:58:46;;;;;;;67.30;6.00;;;12.40;99.90;;;;;;4947227;29;20310;-78
2021/06/29 07:01:14;;;;;;;91.00;5.63;;;12.30;99.90;;;;;;4953240;29;20234;-78
2021/06/29 07:03:43;;;;;;;184.77;9.67;;;12.20;99.90;;;;;;4941860;29;20221;-78
2021/06/29 07:06:12;;;;;;;127.80;6.63;;;12.50;99.90;;;;;;4945324;29;20307;-78
2021/06/29 07:08:39;;;;;;;188.00;8.90;;;12.10;99.90;;;;;;4944824;29;20207;-78
2021/06/29 07:11:07;;;;;;;93.77;6.50;;;12.00;99.90;;;;;;4941722;29;20235;-79
2021/06/29 07:13:34;;;;;;;103.17;6.70;;;12.60;99.90;;;;;;4950390;29;20202;-78
2021/06/29 07:16:01;;;;;;;48.10;4.93;;;12.80;99.90;;;;;;4937702;29;20247;-79
2021/06/29 07:18:28;;;;;;;68.53;5.10;;;13.30;99.90;;;;;;4946776;29;20240;-78
2021/06/29 07:20:56;;;;;;;77.67;5.67;;;13.20;99.90;;;;;;4941307;29;20226;-78
2021/06/29 07:23:23;;;;;;;17.53;3.93;;;13.20;99.90;;;;;;4949019;29;20264;-79
2021/06/29 07:25:50;;;;;;;11.40;3.43;;;13.30;99.90;;;;;;4946072;29;20280;-79
2021/06/29 07:28:17;;;;;;;25.90;4.23;;;13.60;99.90;;;;;;4951853;29;20203;-79
2021/06/29 07:30:44;;;;;;;14.30;3.40;;;14.30;99.90;;;;;;4945458;29;20203;-79
2021/06/29 07:33:11;;;;;;;6.37;3.20;;;13.20;99.90;;;;;;4947215;29;20278;-79
2021/06/29 07:35:39;;;;;;;12.80;4.23;;;13.30;99.90;;;;;;4940665;29;20729;-79
2021/06/29 07:38:08;;;;;;;52.87;5.87;;;13.70;99.90;;;;;;4947441;29;20231;-78
2021/06/29 07:40:36;;;;;;;16.77;5.27;;;14.50;99.90;;;;;;4944138;29;20321;-78
2021/06/29 07:43:04;;;;;;;9.40;4.20;;;15.00;99.90;;;;;;4946972;29;20238;-79
2021/06/29 07:45:31;;;;;;;6.97;3.47;;;14.40;99.90;;;;;;4937662;29;20295;-79
2021/06/29 07:48:01;;;;;;;3.23;2.97;;;14.30;99.90;;;;;;4945571;28;20631;-79
2021/06/29 07:50:28;;;;;;;3.80;3.43;;;14.70;99.90;;;;;;4939287;29;20267;-79
2021/06/29 07:52:55;;;;;;;5.17;3.07;;;15.10;99.90;;;;;;4951879;29;20611;-79
2021/06/29 07:55:25;;;;;;;3.70;3.30;;;15.30;99.90;;;;;;4952790;29;20290;-79
2021/06/29 07:57:52;;;;;;;4.40;3.27;;;16.20;99.90;;;;;;4934494;29;20204;-79
2021/06/29 08:00:20;;;;;;;3.60;2.80;;;17.10;99.90;;;;;;4938411;29;20267;-79
2021/06/29 08:02:46;;;;;;;3.17;2.70;;;17.20;99.90;;;;;;4945971;29;20959;-80
2021/06/29 08:05:13;;;;;;;2.65;2.45;;;17.10;99.90;;;;;;4938641;29;20282;-79
2021/06/29 08:07:40;;;;;;;2.42;2.20;;;17.30;99.90;;;;;;4939206;29;20300;-79
2021/06/29 08:10:09;;;;;;;3.40;2.78;;;18.20;99.90;;;;;;4948130;29;20227;-79
2021/06/29 08:12:37;;;;;;;2.90;2.70;;;18.40;99.90;;;;;;4942140;29;20242;-79
2021/06/29 08:15:05;;;;;;;2.70;2.45;;;18.10;99.90;;;;;;4944836;29;20222;-79
2021/06/29 08:17:32;;;;;;;3.40;2.50;;;18.60;99.90;;;;;;4948443;28;20583;-79
2021/06/29 08:19:59;;;;;;;2.97;2.58;;;18.30;99.90;;;;;;4938044;29;20282;-79
2021/06/29 08:22:26;;;;;;;2.60;2.38;;;18.10;99.90;;;;;;4943525;29;20270;-79
2021/06/29 08:24:53;;;;;;;3.42;2.97;;;18.00;99.90;;;;;;4945301;29;20318;-79
2021/06/29 08:27:21;;;;;;;3.58;2.90;;;17.50;99.90;;;;;;4947616;29;20703;-79
2021/06/29 08:29:52;;;;;;;5.13;4.47;;;17.50;99.90;;;;;;4953921;29;20290;-79
2021/06/29 08:32:20;;;;;;;4.70;4.30;;;16.90;99.90;;;;;;4943470;28;20227;-79
2021/06/29 08:34:46;;;;;;;6.15;3.83;;;16.60;99.90;;;;;;4953582;29;20289;-80
2021/06/29 08:37:14;;;;;;;4.00;3.70;;;16.20;99.90;;;;;;4947938;29;20969;-79
2021/06/29 08:39:41;;;;;;;3.45;3.15;;;16.30;99.90;;;;;;4948494;29;20318;-81
2021/06/29 08:42:08;;;;;;;3.60;3.30;;;16.40;99.90;;;;;;4945031;29;20249;-79
2021/06/29 08:44:35;;;;;;;2.92;2.67;;;17.20;99.90;;;;;;4932321;29;20302;-80
2021/06/29 08:47:04;;;;;;;2.20;2.00;;;18.40;99.90;;;;;;4944772;29;20281;-80
2021/06/29 08:49:31;;;;;;;2.85;2.65;;;20.00;99.90;;;;;;4947354;29;20238;-80
2021/06/29 08:51:58;;;;;;;3.22;2.63;;;19.20;99.90;;;;;;4952247;29;21028;-81
2021/06/29 08:54:25;;;;;;;2.60;2.40;;;19.40;99.90;;;;;;4948884;28;20206;-80
2021/06/29 08:56:52;;;;;;;2.88;2.40;;;19.50;99.90;;;;;;4947865;29;20583;-81
2021/06/29 08:59:19;;;;;;;2.38;2.17;;;19.90;99.90;;;;;;4949026;29;20234;-81
2021/06/29 09:01:46;;;;;;;2.65;2.40;;;19.70;99.90;;;;;;4950912;29;20686;-81
2021/06/29 09:04:14;;;;;;;2.35;2.15;;;19.70;99.90;;;;;;4950381;29;20654;-81
2021/06/29 09:06:43;;;;;;;2.22;2.03;;;19.10;99.90;;;;;;4946070;29;20295;-81
2021/06/29 09:09:24;;;;;;;2.20;2.00;;;19.60;99.90;;;;;;4952318;29;20204;-80
2021/06/29 09:11:52;;;;;;;1.60;1.50;;;19.70;99.90;;;;;;4945251;29;20665;-80
2021/06/29 09:14:19;;;;;;;2.40;2.20;;;20.20;99.90;;;;;;4949311;29;20287;-80
2021/06/29 09:16:47;;;;;;;1.92;1.80;;;19.90;99.90;;;;;;4949883;29;20199;-80
2021/06/29 09:19:35;;;;;;;2.15;2.00;;;19.70;99.90;;;;;;4943610;29;20215;-80
2021/06/29 09:22:27;;;;;;;3.78;2.47;;;20.60;99.90;;;;;;4947153;29;20226;-80
2021/06/29 09:24:55;;;;;;;2.15;2.05;;;22.10;99.90;;;;;;4936940;29;20222;-80
2021/06/29 09:27:41;;;;;;;2.08;1.60;;;21.80;99.90;;;;;;4947669;29;20217;-80
2021/06/29 09:30:29;;;;;;;2.00;1.52;;;23.10;99.90;;;;;;4935727;29;20219;-80
2021/06/29 09:32:59;;;;;;;1.98;1.48;;;23.20;99.90;;;;;;4945867;29;20286;-81
2021/06/29 09:35:28;;;;;;;1.58;1.48;;;22.50;99.90;;;;;;4950644;29;20294;-81
2021/06/29 09:37:56;;;;;;;1.60;1.50;;;22.60;99.90;;;;;;4949563;29;20205;-82
2021/06/29 09:40:26;;;;;;;1.88;1.42;;;21.60;99.90;;;;;;4954590;29;20633;-82
2021/06/29 09:42:54;;;;;;;2.47;1.10;;;22.40;99.90;;;;;;4952743;29;20238;-82
2021/06/29 09:45:35;;;;;;;3.75;1.20;;;22.40;99.90;;;;;;4950758;29;20279;-82
2021/06/29 09:48:02;;;;;;;1.27;1.17;;;21.90;99.90;;;;;;4938196;29;20239;-82
2021/06/29 09:50:54;;;;;;;1.20;1.10;;;23.60;99.90;;;;;;4956577;28;20293;-81
2021/06/29 09:53:26;;;;;;;0.93;0.88;;;24.20;99.90;;;;;;4942832;29;20207;-82
2021/06/29 09:55:55;;;;;;;1.40;1.02;;;24.50;99.90;;;;;;4952473;28;20203;-82
2021/06/29 09:58:23;;;;;;;1.95;1.08;;;24.90;99.90;;;;;;4954123;29;20622;-82
2021/06/29 10:00:53;;;;;;;2.53;1.00;;;25.70;99.90;;;;;;4948254;28;20202;-82
2021/06/29 10:03:26;;;;;;;1.13;1.02;;;26.20;99.90;;;;;;4954872;28;20204;-82
2021/06/29 10:05:55;;;;;;;2.83;0.90;;;26.00;99.90;;;;;;4941260;29;20204;-76
2021/06/29 10:08:28;;;;;;;1.15;0.90;;;26.30;99.90;;;;;;4952739;28;20286;-76
2021/06/29 10:11:06;;;;;;;1.10;1.00;;;26.30;99.90;;;;;;4950517;28;20207;-76
2021/06/29 10:13:36;;;;;;;1.45;0.90;;;26.80;99.90;;;;;;4947125;28;20229;-76
2021/06/29 10:16:04;;;;;;;1.90;0.88;;;26.50;99.90;;;;;;4959189;28;20278;-76
2021/06/29 10:18:35;;;;;;;1.75;1.00;;;26.30;99.90;;;;;;4951495;28;20239;-76
2021/06/29 10:21:14;;;;;;;1.75;0.80;;;26.50;99.90;;;;;;4946288;28;20235;-76
2021/06/29 10:23:42;;;;;;;0.77;0.73;;;26.90;99.90;;;;;;4954741;28;20325;-77
2021/06/29 10:26:09;;;;;;;0.80;0.60;;;27.30;99.90;;;;;;4954401;28;20287;-76
2021/06/29 10:28:38;;;;;;;1.00;0.80;;;26.90;99.90;;;;;;4949065;28;20748;-76
2021/06/29 10:31:05;;;;;;;0.73;0.63;;;26.60;99.90;;;;;;4952734;28;20208;-76
2021/06/29 10:33:33;;;;;;;1.27;0.70;;;27.10;99.90;;;;;;4953122;28;20261;-76
2021/06/29 10:36:00;;;;;;;0.40;0.40;;;26.50;99.90;;;;;;4948721;28;20234;-76
2021/06/29 10:38:29;;;;;;;0.47;0.45;;;26.80;99.90;;;;;;4945111;28;20219;-76
2021/06/29 10:40:58;;;;;;;1.55;0.40;;;26.30;99.90;;;;;;4952944;28;20280;-76
2021/06/29 10:43:25;;;;;;;0.77;0.60;;;25.40;99.90;;;;;;4955695;28;20210;-76
2021/06/29 10:45:53;;;;;;;0.30;0.30;;;24.90;99.90;;;;;;4947117;28;20237;-77
2021/06/29 10:48:22;;;;;;;1.77;0.60;;;24.20;99.90;;;;;;4945326;28;20199;-75
2021/06/29 10:50:50;;;;;;;0.82;0.40;;;23.40;99.90;;;;;;4955324;28;20253;-76
2021/06/29 10:53:37;;;;;;;2.17;0.63;;;23.40;99.90;;;;;;4952289;28;20243;-75
2021/06/29 10:56:06;;;;;;;1.05;0.50;;;22.80;99.90;;;;;;4954679;28;20238;-76
2021/06/29 10:58:38;;;;;;;0.80;0.50;;;23.40;99.90;;;;;;4945337;28;20700;-75
2021/06/29 11:01:26;;;;;;;1.48;0.50;;;24.40;99.90;;;;;;4953222;28;20305;-76
2021/06/29 11:03:55;;;;;;;0.45;0.30;;;25.30;99.90;;;;;;4949320;28;20305;-76
2021/06/29 11:06:41;;;;;;;2.35;0.50;;;26.10;99.90;;;;;;4952569;28;20231;-76
2021/06/29 11:09:11;;;;;;;0.60;0.50;;;26.00;99.90;;;;;;4953721;28;20207;-76
2021/06/29 11:11:38;;;;;;;0.90;0.50;;;25.40;99.90;;;;;;4942265;28;20729;-75
2021/06/29 11:14:26;;;;;;;0.52;0.52;;;26.40;99.90;;;;;;4947964;28;20322;-76
2021/06/29 11:16:55;;;;;;;0.80;0.50;;;27.40;99.90;;;;;;4951189;29;20198;-77
2021/06/29 11:19:42;;;;;;;0.68;0.50;;;29.00;99.90;;;;;;4948990;29;20294;-77
2021/06/29 11:22:43;;;;;;;0.77;0.50;;;30.10;99.90;;;;;;4953025;28;20728;-77
2021/06/29 11:25:11;;;;;;;0.70;0.50;;;29.50;99.90;;;;;;4951823;29;20310;-77
2021/06/29 11:28:01;;;;;;;0.57;0.52;;;30.10;99.90;;;;;;4944539;28;20286;-77
2021/06/29 11:31:09;;;;;;;0.57;0.55;;;30.10;99.90;;;;;;4949032;28;20294;-76
2021/06/29 11:33:45;;;;;;;1.08;0.80;;;29.00;99.90;;;;;;4950272;29;20209;-77
2021/06/29 11:36:52;;;;;;;0.98;0.60;;;26.90;99.90;;;;;;4948866;28;20257;-77
2021/06/29 11:39:33;;;;;;;0.98;0.60;;;25.20;99.90;;;;;;4943572;28;20195;-79
2021/06/29 11:42:21;;;;;;;0.77;0.50;;;25.10;99.90;;;;;;4940349;29;20215;-78
2021/06/29 11:45:05;;;;;;;0.45;0.40;;;24.70;99.90;;;;;;4940443;29;20306;-78
2021/06/29 11:47:41;;;;;;;0.55;0.50;;;24.90;99.90;;;;;;4949313;28;20285;-79
2021/06/29 11:50:19;;;;;;;2.33;0.52;;;26.80;99.90;;;;;;4938337;29;20194;-78
2021/06/29 11:52:46;;;;;;;1.63;0.57;;;28.00;99.90;;;;;;4946902;29;20209;-79
2021/06/29 11:55:18;;;;;;;0.80;0.55;;;28.50;99.90;;;;;;4955284;28;20290;-78
2021/06/29 11:57:50;;;;;;;0.63;0.60;;;28.30;99.90;;;;;;4949643;28;20200;-78
2021/06/29 12:00:21;;;;;;;1.25;0.60;;;26.00;99.90;;;;;;4946275;29;20666;-79
2021/06/29 12:02:50;;;;;;;1.50;0.50;;;27.30;99.90;;;;;;4950639;29;20555;-79
2021/06/29 12:05:19;;;;;;;0.52;0.43;;;27.10;99.90;;;;;;4953515;29;20250;-78
2021/06/29 12:07:48;;;;;;;0.55;0.50;;;28.80;99.90;;;;;;4940411;29;20218;-79
2021/06/29 12:10:17;;;;;;;0.85;0.40;;;30.20;99.90;;;;;;4953866;29;20313;-78
2021/06/29 12:12:46;;;;;;;0.95;0.60;;;30.80;99.90;;;;;;4944004;28;20663;-78
2021/06/29 12:15:21;;;;;;;0.93;0.40;;;30.10;97.40;;;;;;4951919;28;20278;-78
2021/06/29 12:17:51;;;;;;;0.77;0.50;;;30.00;99.90;;;;;;4953860;29;20289;-78
2021/06/29 12:20:21;;;;;;;0.40;0.40;;;28.80;99.90;;;;;;4939883;29;20696;-77
2021/06/29 12:22:49;;;;;;;0.40;0.40;;;25.80;99.90;;;;;;4950647;28;20317;-78
2021/06/29 12:25:26;;;;;;;0.45;0.45;;;24.10;99.90;;;;;;4940639;29;20673;-78
2021/06/29 12:27:54;;;;;;;0.50;0.40;;;23.20;99.90;;;;;;4946000;28;20281;-78
2021/06/29 12:30:36;;;;;;;2.00;0.60;;;23.60;99.90;;;;;;4945591;28;20306;-76
2021/06/29 12:33:19;;;;;;;0.90;0.50;;;23.60;99.90;;;;;;4949774;28;20238;-77
2021/06/29 12:35:48;;;;;;;1.88;0.45;;;23.50;99.90;;;;;;4953750;29;20227;-77
2021/06/29 12:38:17;;;;;;;1.25;0.60;;;23.10;99.90;;;;;;4945950;29;20262;-77
2021/06/29 12:40:47;;;;;;;1.58;0.45;;;23.10;99.90;;;;;;4944544;29;20200;-78
2021/06/29 12:43:26;;;;;;;2.35;0.43;;;22.80;99.90;;;;;;4945784;29;20242;-77
2021/06/29 12:45:55;;;;;;;1.55;0.50;;;23.00;99.90;;;;;;4950659;29;20310;-78
2021/06/29 12:48:23;;;;;;;0.90;0.47;;;23.00;99.90;;;;;;4942771;29;20615;-77
2021/06/29 12:51:04;;;;;;;1.10;0.50;;;22.90;99.90;;;;;;4942580;29;20200;-78
2021/06/29 12:53:31;;;;;;;0.68;0.50;;;22.90;99.90;;;;;;4946554;29;20845;-78
2021/06/29 12:56:16;;;;;;;1.58;0.32;;;23.00;99.90;;;;;;4944175;29;20200;-78
2021/06/29 12:58:44;;;;;;;1.48;0.38;;;23.90;99.90;;;;;;4947891;29;20218;-77